Briggs, TX (78608)

1:34 AM CDT on August 21, 2014 (GMT -0500)
APRSWXNET Lampasas TX US | Change Station
CLOSE
Current Station
Personal Weather Station
Location: Kempner, TX
Elevation: 1017 ft
Nearby Weather Stations

Elev 1017 ft 31.08 °N, 98.05 °W | Updated 42 minutes ago

Clear
Clear
82 °F
Feels Like 86 °F
N
5
Wind Variable Wind from SSW
Gusts 17.0 mph

Today
High -- | Low -- °F
--% Chance of Precip.
Yesterday
High -- | Low -- °F
Precip. -- in
7:01 AM 8:07 PM
Waning Crescent, 16% visible
Pressure 29.98 in
Visibility 7.0 miles
Clouds Clear
Heat Index 86 °F
Dew Point 71 °F
Humidity 69%
Rainfall 0.00 in
Snow Depth Not available.
UV 0 out of 12
Pollen 5.90 out of 12
Air Quality Not available.
Flu Activity Not available.
METAR KGRK 210555Z 15015KT 7SM CLR 27/21 A3000 RMK SLP152 52014

More Conditions Fewer Conditions

Pressure 29.98 in
Visibility 7.0 miles
Clouds Clear
Heat Index 86 °F
Dew Point 71 °F
Humidity 69%
Rainfall 0.00 in
Snow Depth Not available.
UV 0 out of 12
Pollen 5.90 out of 12
Air Quality Not available.
Flu Activity Not available.
METAR KGRK 210555Z 15015KT 7SM CLR 27/21 A3000 RMK SLP152 52014

More Conditions Fewer Conditions

10-Day Weather Forecast

Almanac

Astronomy

Aug. 21, 2014 Rise Set
Actual Time 7:01 AM CDT 8:07 PM CDT
Civil Twilight 6:36 AM CDT 8:32 PM CDT
Nautical Twilight 6:06 AM CDT 9:02 PM CDT
Astronomical Twilight 5:36 AM CDT 9:33 PM CDT
Moon 3:39 AM CDT 5:32 PM CDT
Length of Visible Light 13h 56m
Length of Day
13h 06m
Tomorrow will be 1m 42s shorter.
Waning Crescent, 16% of the Moon is Illuminated
Today
Waning Crescent
Aug 25
New
Sep 2
First Quarter
Sep 8
Full
Sep 15
Last Quarter

Today's Extremes

State Highs State Lows

Community

WunderPhotos

Upload Photos

1,745,858 photos uploaded!

Nearby

Snow Depth

Station Depth Elevation
No new snow has been reported.

Earthquake Activity

City Distance Mag. Time & Date
No recent earthquake activity has been reported nearby.
Minimum magnitude displayed is 2.5.

Coastal Water Temperatures

Place Temperature
No Stations Reporting

Nearby Weather Stations